createdAt,value
2017-07-29T00:01:22.486Z,60.15
2017-07-29T00:03:52.053Z,60.27
2017-07-29T00:06:21.658Z,60.01
2017-07-29T00:08:51.741Z,60.16
2017-07-29T00:11:22.104Z,60.12
2017-07-29T00:13:51.674Z,60.52
2017-07-29T00:16:22.032Z,60.49
2017-07-29T00:18:51.662Z,60.33
2017-07-29T00:21:21.200Z,60.43
2017-07-29T00:23:50.793Z,60.42
2017-07-29T00:26:20.366Z,60.17
2017-07-29T00:28:49.958Z,60.06
2017-07-29T00:31:20.324Z,60.34
2017-07-29T00:33:49.867Z,60.34
2017-07-29T00:36:19.448Z,60.86
2017-07-29T00:38:49.148Z,60.56
2017-07-29T00:41:18.688Z,60.66
2017-07-29T00:43:48.260Z,60.45
2017-07-29T00:46:17.802Z,60.49
2017-07-29T00:48:47.375Z,60.55
2017-07-29T00:51:17.040Z,60.87
2017-07-29T00:53:46.714Z,60.90
2017-07-29T00:56:16.261Z,60.81
2017-07-29T00:58:46.550Z,61.05
2017-07-29T01:01:16.101Z,60.83
2017-07-29T01:03:45.633Z,60.88
2017-07-29T01:06:15.174Z,60.96
2017-07-29T01:08:44.743Z,60.86
2017-07-29T01:11:14.314Z,60.60
2017-07-29T01:13:45.083Z,60.46
2017-07-29T01:16:14.614Z,60.52
2017-07-29T01:18:44.163Z,60.02
2017-07-29T01:21:13.555Z,59.71
2017-07-29T01:23:43.868Z,59.28
2017-07-29T01:26:13.480Z,59.44
2017-07-29T01:28:42.407Z,59.60
2017-07-29T01:31:11.932Z,59.47
2017-07-29T01:33:41.469Z,59.72
2017-07-29T01:36:11.008Z,60.02
2017-07-29T01:38:41.379Z,60.39
2017-07-29T01:41:10.921Z,60.49
2017-07-29T01:43:40.512Z,60.16
2017-07-29T01:46:09.393Z,60.22
2017-07-29T01:48:38.921Z,60.69
2017-07-29T01:51:07.770Z,60.67
2017-07-29T01:53:37.299Z,60.89
2017-07-29T01:56:06.877Z,60.82
2017-07-29T01:58:36.397Z,60.85
2017-07-29T02:01:05.223Z,60.91
2017-07-29T02:03:34.438Z,60.97
2017-07-29T02:06:04.750Z,61.12
2017-07-29T02:08:33.950Z,61.15
2017-07-29T02:11:03.798Z,60.98
2017-07-29T02:13:33.337Z,60.85
2017-07-29T02:16:02.845Z,60.80
2017-07-29T02:18:32.402Z,60.82
2017-07-29T02:21:02.688Z,60.71
2017-07-29T02:23:32.273Z,60.60
2017-07-29T02:26:01.780Z,60.64
2017-07-29T02:28:31.321Z,60.60
2017-07-29T02:31:00.882Z,60.24
2017-07-29T02:33:30.452Z,59.67
2017-07-29T02:36:00.761Z,59.45
2017-07-29T02:38:30.275Z,59.66
2017-07-29T02:41:00.609Z,59.03
2017-07-29T02:43:30.887Z,58.99
2017-07-29T02:46:00.472Z,58.44
2017-07-29T02:48:30.009Z,58.80
2017-07-29T02:50:59.555Z,59.15
2017-07-29T02:53:29.113Z,59.21
2017-07-29T02:55:58.630Z,59.07
2017-07-29T02:58:28.508Z,59.21
2017-07-29T03:00:58.017Z,59.41
2017-07-29T03:03:27.551Z,59.35
2017-07-29T03:05:57.082Z,59.61
2017-07-29T03:08:26.629Z,60.01
2017-07-29T03:10:56.145Z,60.08
2017-07-29T03:13:25.689Z,60.48
2017-07-29T03:15:55.220Z,60.23
2017-07-29T03:18:25.544Z,60.46
2017-07-29T03:20:55.869Z,60.07
2017-07-29T03:23:25.839Z,60.51
2017-07-29T03:25:55.176Z,60.46
2017-07-29T03:28:25.552Z,60.06
2017-07-29T03:30:55.076Z,60.01
2017-07-29T03:33:24.278Z,60.20
2017-07-29T03:35:53.832Z,59.90
2017-07-29T03:38:24.135Z,60.48
2017-07-29T03:40:53.687Z,60.27
2017-07-29T03:43:23.301Z,59.84
2017-07-29T03:45:52.863Z,59.95
2017-07-29T03:48:22.837Z,60.47
2017-07-29T03:50:52.375Z,60.11
2017-07-29T03:53:22.800Z,59.78
2017-07-29T03:55:52.331Z,60.47
2017-07-29T03:58:22.654Z,60.38
2017-07-29T04:00:52.999Z,60.60
2017-07-29T04:03:22.559Z,60.35
2017-07-29T04:05:52.193Z,60.75
2017-07-29T04:08:22.514Z,60.63
2017-07-29T04:10:52.812Z,60.86
2017-07-29T04:13:22.368Z,60.61
2017-07-29T04:15:51.890Z,60.64
2017-07-29T04:18:21.532Z,60.82
2017-07-29T04:20:51.829Z,61.03
2017-07-29T04:23:21.358Z,60.24
2017-07-29T04:25:50.586Z,59.97
2017-07-29T04:28:20.169Z,59.68
2017-07-29T04:30:49.705Z,60.14
2017-07-29T04:33:20.270Z,59.90
2017-07-29T04:35:49.808Z,59.96
2017-07-29T04:38:19.350Z,59.33
2017-07-29T04:40:49.874Z,59.57
2017-07-29T04:43:20.239Z,59.43
2017-07-29T04:45:49.799Z,59.32
2017-07-29T04:48:19.331Z,58.31
2017-07-29T04:50:48.903Z,58.13
2017-07-29T04:53:18.410Z,57.31
2017-07-29T04:55:47.937Z,57.13
2017-07-29T04:58:18.232Z,57.42
2017-07-29T05:00:47.782Z,57.11
2017-07-29T05:03:17.359Z,56.72
2017-07-29T05:05:46.903Z,56.88
2017-07-29T05:08:16.455Z,56.89
2017-07-29T05:10:45.982Z,57.06
2017-07-29T05:13:15.658Z,56.84
2017-07-29T05:15:45.217Z,56.90
2017-07-29T05:18:14.761Z,56.28
2017-07-29T05:20:44.405Z,55.92
2017-07-29T05:23:13.922Z,54.59
2017-07-29T05:25:43.462Z,54.94
2017-07-29T05:28:13.028Z,54.25
2017-07-29T05:30:42.575Z,53.50
2017-07-29T05:33:11.754Z,53.28
2017-07-29T05:35:41.331Z,51.66
2017-07-29T05:38:10.690Z,51.21
2017-07-29T05:40:40.224Z,51.21
2017-07-29T05:43:09.761Z,50.36
2017-07-29T05:45:39.102Z,50.42
2017-07-29T05:48:08.632Z,49.85
2017-07-29T05:50:38.166Z,49.12
2017-07-29T05:53:07.693Z,47.92
2017-07-29T05:55:38.004Z,47.38
2017-07-29T05:58:07.541Z,47.10
2017-07-29T06:00:36.393Z,47.25
2017-07-29T06:03:05.932Z,46.66
2017-07-29T06:05:35.473Z,46.58
2017-07-29T06:08:05.006Z,46.09
2017-07-29T06:10:34.512Z,45.57
2017-07-29T06:13:04.046Z,46.93
2017-07-29T06:15:34.344Z,47.71
2017-07-29T06:18:03.887Z,47.61
2017-07-29T06:20:33.432Z,47.11
2017-07-29T06:23:02.775Z,45.70
2017-07-29T06:25:33.192Z,44.96
2017-07-29T06:28:02.771Z,44.03
2017-07-29T06:30:32.335Z,43.85
2017-07-29T06:33:02.639Z,44.41
2017-07-29T06:35:32.224Z,43.68
2017-07-29T06:38:01.772Z,42.42
2017-07-29T06:40:32.062Z,40.67
2017-07-29T06:43:01.707Z,39.96
2017-07-29T06:45:32.024Z,40.45
2017-07-29T06:48:02.404Z,39.91
2017-07-29T06:50:31.947Z,39.51
2017-07-29T06:53:02.260Z,39.20
2017-07-29T06:55:32.639Z,38.98
2017-07-29T06:58:02.171Z,38.54
2017-07-29T07:00:31.755Z,38.35
2017-07-29T07:03:01.389Z,37.37
2017-07-29T07:05:30.920Z,37.53
2017-07-29T07:08:00.475Z,36.90
2017-07-29T07:10:30.033Z,37.76
2017-07-29T07:12:59.550Z,38.93
2017-07-29T07:15:29.873Z,37.72
2017-07-29T07:18:00.200Z,38.67
2017-07-29T07:20:30.509Z,38.50
2017-07-29T07:23:00.051Z,37.51
2017-07-29T07:25:29.599Z,36.48
2017-07-29T07:27:59.141Z,36.70
2017-07-29T07:30:29.122Z,35.88
2017-07-29T07:32:58.675Z,36.16
2017-07-29T07:35:28.977Z,35.82
2017-07-29T07:37:58.542Z,34.13
2017-07-29T07:40:28.077Z,34.96
2017-07-29T07:42:57.602Z,34.92
2017-07-29T07:45:27.549Z,34.62
2017-07-29T07:47:57.582Z,35.03
2017-07-29T07:50:27.132Z,35.74
2017-07-29T07:52:56.655Z,35.30
2017-07-29T07:55:26.958Z,36.04
2017-07-29T07:57:56.514Z,36.46
2017-07-29T08:00:26.205Z,36.56
2017-07-29T08:02:55.780Z,37.66
2017-07-29T08:05:25.327Z,37.33
2017-07-29T08:07:54.529Z,37.40
2017-07-29T08:10:24.659Z,36.85
2017-07-29T08:12:54.196Z,35.73
2017-07-29T08:15:23.735Z,35.61
2017-07-29T08:17:53.302Z,36.54
2017-07-29T08:20:22.852Z,35.39
2017-07-29T08:22:53.153Z,35.86
2017-07-29T08:25:23.378Z,35.71
2017-07-29T08:27:53.583Z,36.13
2017-07-29T08:30:23.179Z,35.77
2017-07-29T08:32:52.727Z,35.05
2017-07-29T08:35:22.414Z,34.85
2017-07-29T08:37:51.993Z,34.04
2017-07-29T08:40:23.105Z,32.93
2017-07-29T08:42:53.375Z,32.47
2017-07-29T08:45:22.913Z,34.00
2017-07-29T08:47:52.437Z,33.58
2017-07-29T08:50:22.902Z,33.55
2017-07-29T08:52:52.206Z,32.95
2017-07-29T08:55:21.879Z,32.23
2017-07-29T08:57:52.255Z,34.13
2017-07-29T09:00:21.472Z,34.27
2017-07-29T09:02:50.816Z,34.57
2017-07-29T09:05:21.160Z,34.83
2017-07-29T09:07:50.729Z,33.97
2017-07-29T09:10:20.274Z,33.47
2017-07-29T09:12:49.839Z,33.80
2017-07-29T09:15:19.388Z,33.42
2017-07-29T09:17:49.009Z,33.91
2017-07-29T09:20:18.568Z,33.75
2017-07-29T09:22:48.620Z,33.81
2017-07-29T09:25:18.187Z,33.73
2017-07-29T09:27:47.724Z,33.16
2017-07-29T09:30:17.272Z,32.94
2017-07-29T09:32:46.820Z,33.27
2017-07-29T09:35:17.126Z,33.21
2017-07-29T09:37:46.760Z,32.89
2017-07-29T09:40:17.153Z,32.23
2017-07-29T09:42:46.701Z,31.20
2017-07-29T09:45:16.240Z,31.99
2017-07-29T09:47:45.766Z,32.09
2017-07-29T09:50:15.319Z,31.30
2017-07-29T09:52:44.895Z,32.23
2017-07-29T09:55:14.266Z,32.10
2017-07-29T09:57:43.799Z,31.99
2017-07-29T10:00:13.331Z,31.99
2017-07-29T10:02:43.698Z,32.41
2017-07-29T10:05:13.218Z,32.22
2017-07-29T10:07:43.045Z,31.82
2017-07-29T10:10:12.604Z,31.00
2017-07-29T10:12:42.143Z,31.47
2017-07-29T10:15:11.698Z,32.51
2017-07-29T10:17:42.001Z,33.13
2017-07-29T10:20:11.549Z,33.72
2017-07-29T10:22:41.095Z,34.09
2017-07-29T10:25:10.640Z,34.16
2017-07-29T10:27:40.939Z,33.90
2017-07-29T10:30:10.490Z,34.74
2017-07-29T10:32:40.015Z,34.18
2017-07-29T10:35:09.571Z,34.02
2017-07-29T10:37:39.106Z,34.35
2017-07-29T10:40:08.621Z,33.95
2017-07-29T10:42:38.353Z,34.33
2017-07-29T10:45:07.893Z,33.93
2017-07-29T10:47:37.430Z,33.55
2017-07-29T10:50:06.958Z,32.93
2017-07-29T10:52:36.509Z,33.21
2017-07-29T10:55:06.064Z,32.17
2017-07-29T10:57:35.634Z,32.01
2017-07-29T11:00:04.718Z,31.71
2017-07-29T11:02:34.243Z,32.28
2017-07-29T11:05:04.596Z,32.54
2017-07-29T11:07:34.128Z,33.70
2017-07-29T11:10:03.351Z,33.00
2017-07-29T11:12:32.724Z,32.22
2017-07-29T11:15:02.256Z,31.12
2017-07-29T11:17:31.428Z,32.54
2017-07-29T11:20:01.377Z,32.60
2017-07-29T11:22:30.903Z,32.45
2017-07-29T11:25:01.214Z,30.41
2017-07-29T11:27:30.751Z,29.38
2017-07-29T11:30:00.286Z,29.80
2017-07-29T11:32:29.846Z,30.60
2017-07-29T11:35:00.172Z,30.77
2017-07-29T11:37:31.412Z,29.93
2017-07-29T11:40:00.929Z,32.06
2017-07-29T11:42:31.752Z,30.46
2017-07-29T11:45:01.325Z,30.11
2017-07-29T11:47:31.641Z,30.64
2017-07-29T11:50:01.172Z,31.49
2017-07-29T11:52:30.719Z,30.29
2017-07-29T11:55:00.292Z,30.19
2017-07-29T11:57:29.516Z,31.05
2017-07-29T11:59:59.847Z,31.31
2017-07-29T12:02:29.390Z,30.79
2017-07-29T12:04:58.931Z,30.15
2017-07-29T12:07:28.480Z,28.94
2017-07-29T12:09:58.101Z,27.14
2017-07-29T12:12:27.654Z,25.56
2017-07-29T12:14:57.180Z,23.63
2017-07-29T12:17:27.496Z,21.27
2017-07-29T12:19:57.794Z,19.42
2017-07-29T12:22:27.358Z,20.46
2017-07-29T12:24:56.891Z,20.28
2017-07-29T12:27:26.717Z,20.22
2017-07-29T12:29:56.259Z,20.01
2017-07-29T12:32:26.573Z,21.50
2017-07-29T12:34:56.096Z,21.43
2017-07-29T12:37:26.440Z,23.27
2017-07-29T12:39:55.605Z,20.09
2017-07-29T12:42:25.155Z,17.58
2017-07-29T12:44:54.683Z,17.10
2017-07-29T12:47:24.261Z,17.55
2017-07-29T12:49:54.411Z,17.95
2017-07-29T12:52:23.955Z,18.96
2017-07-29T12:54:54.110Z,19.52
2017-07-29T12:57:23.651Z,21.46
2017-07-29T12:59:53.177Z,20.66
2017-07-29T13:02:22.738Z,19.04
2017-07-29T13:04:52.268Z,20.62
2017-07-29T13:07:22.013Z,21.21
2017-07-29T13:09:52.307Z,22.73
2017-07-29T13:12:21.867Z,22.31
2017-07-29T13:14:51.547Z,22.24
2017-07-29T13:17:21.102Z,19.99
2017-07-29T13:19:50.635Z,21.19
2017-07-29T13:22:20.188Z,21.02
2017-07-29T13:24:50.478Z,22.93
2017-07-29T13:27:20.080Z,23.23
2017-07-29T13:29:49.609Z,21.51
2017-07-29T13:32:19.954Z,21.19
2017-07-29T13:34:49.510Z,22.24
2017-07-29T13:37:19.028Z,21.44
2017-07-29T13:39:48.213Z,20.33
2017-07-29T13:42:17.764Z,18.64
2017-07-29T13:44:48.074Z,16.23
2017-07-29T13:47:17.585Z,13.35
2017-07-29T13:49:48.088Z,16.76
2017-07-29T13:52:17.671Z,19.92
2017-07-29T13:54:47.201Z,18.02
2017-07-29T13:57:16.803Z,15.66
2017-07-29T13:59:46.324Z,16.12
2017-07-29T14:02:15.827Z,16.05
2017-07-29T14:04:45.411Z,14.77
2017-07-29T14:07:14.931Z,17.77
2017-07-29T14:09:44.469Z,20.68
2017-07-29T14:12:14.885Z,19.24
2017-07-29T14:14:44.413Z,17.14
2017-07-29T14:17:14.737Z,14.84
2017-07-29T14:19:45.023Z,13.85
2017-07-29T14:22:14.603Z,13.67
2017-07-29T14:24:44.165Z,12.10
2017-07-29T14:27:13.701Z,17.28
2017-07-29T14:29:43.280Z,17.41
2017-07-29T14:32:13.988Z,15.76
2017-07-29T14:34:43.638Z,14.72
2017-07-29T14:37:13.587Z,13.38
2017-07-29T14:39:43.166Z,12.59
2017-07-29T14:42:12.717Z,10.93
2017-07-29T14:44:42.928Z,10.13
2017-07-29T14:47:12.466Z,11.40
2017-07-29T14:49:42.207Z,11.66
2017-07-29T14:52:12.506Z,11.47
2017-07-29T14:54:42.333Z,12.59
2017-07-29T14:57:12.450Z,14.01
2017-07-29T14:59:42.790Z,13.25
2017-07-29T15:02:13.095Z,11.91
2017-07-29T15:04:43.403Z,11.91
2017-07-29T15:07:12.962Z,12.24
2017-07-29T15:09:42.785Z,11.73
2017-07-29T15:12:12.335Z,10.46
2017-07-29T15:14:41.865Z,10.77
2017-07-29T15:17:11.423Z,12.00
2017-07-29T15:19:40.950Z,13.95
2017-07-29T15:22:10.150Z,13.25
2017-07-29T15:24:41.267Z,11.48
2017-07-29T15:27:10.160Z,11.42
2017-07-29T15:29:39.875Z,11.22
2017-07-29T15:32:09.423Z,10.90
2017-07-29T15:34:39.732Z,11.00
2017-07-29T15:37:09.299Z,10.16
2017-07-29T15:39:38.829Z,10.90
2017-07-29T15:42:09.277Z,12.18
2017-07-29T15:44:38.855Z,12.24
2017-07-29T15:47:08.397Z,11.44
2017-07-29T15:49:37.911Z,11.78
2017-07-29T15:52:07.480Z,14.32
2017-07-29T15:54:37.100Z,19.16
2017-07-29T15:57:06.619Z,21.68
2017-07-29T15:59:36.279Z,18.62
2017-07-29T16:02:06.788Z,13.95
2017-07-29T16:04:36.319Z,10.97
2017-07-29T16:07:05.858Z,11.55
2017-07-29T16:09:35.424Z,13.56
2017-07-29T16:12:04.979Z,14.14
2017-07-29T16:14:34.545Z,14.18
2017-07-29T16:17:04.118Z,17.16
2017-07-29T16:19:33.685Z,19.30
2017-07-29T16:22:03.254Z,22.95
2017-07-29T16:24:32.870Z,23.73
2017-07-29T16:27:02.418Z,21.57
2017-07-29T16:29:31.975Z,18.91
2017-07-29T16:32:01.581Z,18.74
2017-07-29T16:34:31.121Z,15.73
2017-07-29T16:37:00.650Z,16.14
2017-07-29T16:39:30.243Z,16.58
2017-07-29T16:41:59.790Z,16.11
2017-07-29T16:44:29.356Z,17.16
2017-07-29T16:46:59.076Z,19.64
2017-07-29T16:49:29.250Z,20.93
2017-07-29T16:51:58.787Z,19.09
2017-07-29T16:54:28.137Z,17.15
2017-07-29T16:56:57.697Z,15.19
2017-07-29T16:59:27.252Z,14.49
2017-07-29T17:01:56.793Z,14.63
2017-07-29T17:04:26.453Z,14.29
2017-07-29T17:06:56.760Z,14.95
2017-07-29T17:09:25.964Z,16.94
2017-07-29T17:11:55.533Z,18.45
2017-07-29T17:14:25.075Z,16.90
2017-07-29T17:16:54.594Z,17.78
2017-07-29T17:19:24.153Z,20.85
2017-07-29T17:21:53.708Z,22.61
2017-07-29T17:24:24.880Z,26.66
2017-07-29T17:26:54.423Z,23.57
2017-07-29T17:29:24.039Z,20.23
2017-07-29T17:31:53.567Z,18.26
2017-07-29T17:34:23.131Z,18.65
2017-07-29T17:36:52.700Z,21.43
2017-07-29T17:39:22.274Z,23.72
2017-07-29T17:41:51.807Z,25.92
2017-07-29T17:44:22.129Z,26.58
2017-07-29T17:46:52.490Z,24.94
2017-07-29T17:49:22.027Z,22.78
2017-07-29T17:51:51.237Z,21.13
2017-07-29T17:54:20.845Z,20.96
2017-07-29T17:56:50.366Z,20.88
2017-07-29T17:59:19.889Z,20.80
2017-07-29T18:01:50.259Z,20.95
2017-07-29T18:04:19.787Z,21.51
2017-07-29T18:06:49.343Z,23.41
2017-07-29T18:09:18.969Z,25.32
2017-07-29T18:11:48.506Z,27.54
2017-07-29T18:14:18.078Z,29.97
2017-07-29T18:16:47.626Z,32.03
2017-07-29T18:19:17.155Z,32.94
2017-07-29T18:21:46.687Z,34.02
2017-07-29T18:24:16.196Z,34.90
2017-07-29T18:26:45.750Z,35.27
2017-07-29T18:29:15.320Z,35.97
2017-07-29T18:31:44.870Z,37.11
2017-07-29T18:34:14.398Z,38.82
2017-07-29T18:36:43.925Z,39.70
2017-07-29T18:39:13.497Z,40.62
2017-07-29T18:41:43.048Z,40.95
2017-07-29T18:44:12.598Z,41.36
2017-07-29T18:46:42.203Z,41.64
2017-07-29T18:49:11.763Z,41.99
2017-07-29T18:51:41.331Z,42.89
2017-07-29T18:54:10.905Z,43.50
2017-07-29T18:56:40.454Z,43.65
2017-07-29T18:59:10.779Z,43.87
2017-07-29T19:01:41.412Z,44.21
2017-07-29T19:04:11.730Z,43.95
2017-07-29T19:06:41.279Z,43.92
2017-07-29T19:09:10.818Z,44.42
2017-07-29T19:11:40.371Z,45.25
2017-07-29T19:14:10.690Z,45.58
2017-07-29T19:16:41.008Z,45.87
2017-07-29T19:19:11.339Z,45.90
2017-07-29T19:21:41.641Z,46.35
2017-07-29T19:24:11.234Z,46.99
2017-07-29T19:26:40.776Z,47.69
2017-07-29T19:29:11.139Z,48.73
2017-07-29T19:31:40.665Z,49.08
2017-07-29T19:34:10.228Z,49.32
2017-07-29T19:36:40.520Z,50.21
2017-07-29T19:39:10.065Z,50.45
2017-07-29T19:41:39.594Z,50.65
2017-07-29T19:44:09.180Z,50.82
2017-07-29T19:46:38.866Z,51.42
2017-07-29T19:49:08.444Z,51.84
2017-07-29T19:51:37.998Z,51.75
2017-07-29T19:54:07.555Z,51.67
2017-07-29T19:56:37.118Z,51.96
2017-07-29T19:59:06.684Z,52.39
2017-07-29T20:01:36.230Z,52.91
2017-07-29T20:04:05.753Z,53.48
2017-07-29T20:06:34.973Z,53.88
2017-07-29T20:09:03.761Z,53.63
2017-07-29T20:11:33.312Z,53.46
2017-07-29T20:14:03.641Z,53.49
2017-07-29T20:16:34.050Z,53.49
2017-07-29T20:19:03.774Z,53.50
2017-07-29T20:21:34.085Z,53.61
2017-07-29T20:24:03.688Z,53.77
2017-07-29T20:26:33.210Z,54.18
2017-07-29T20:29:03.542Z,54.34
2017-07-29T20:31:33.861Z,54.84
2017-07-29T20:34:04.283Z,55.19
2017-07-29T20:36:34.610Z,56.11
2017-07-29T20:39:03.768Z,55.88
2017-07-29T20:41:33.373Z,55.87
2017-07-29T20:44:02.928Z,55.65
2017-07-29T20:46:33.364Z,55.54
2017-07-29T20:49:03.677Z,55.86
2017-07-29T20:51:33.979Z,56.14
2017-07-29T20:54:03.531Z,56.24
2017-07-29T20:56:33.155Z,56.78
2017-07-29T20:59:02.743Z,56.71
2017-07-29T21:01:32.265Z,56.54
2017-07-29T21:04:01.834Z,56.42
2017-07-29T21:06:32.158Z,56.22
2017-07-29T21:09:02.506Z,56.22
2017-07-29T21:11:32.064Z,56.14
2017-07-29T21:14:01.601Z,56.47
2017-07-29T21:16:31.914Z,57.07
2017-07-29T21:19:01.457Z,57.10
2017-07-29T21:21:30.655Z,56.64
2017-07-29T21:24:00.216Z,56.64
2017-07-29T21:26:29.838Z,56.65
2017-07-29T21:28:59.424Z,57.42
2017-07-29T21:31:28.984Z,58.16
2017-07-29T21:33:58.540Z,58.73
2017-07-29T21:36:28.079Z,58.56
2017-07-29T21:38:58.429Z,58.97
2017-07-29T21:41:28.010Z,59.13
2017-07-29T21:43:58.317Z,58.85
2017-07-29T21:46:27.857Z,59.52
2017-07-29T21:48:57.435Z,60.15
2017-07-29T21:51:26.991Z,60.54
2017-07-29T21:53:56.581Z,61.02
2017-07-29T21:56:26.148Z,61.11
2017-07-29T21:58:55.733Z,59.70
2017-07-29T22:01:25.305Z,59.23
2017-07-29T22:03:55.207Z,59.22
2017-07-29T22:06:24.629Z,59.52
2017-07-29T22:08:54.262Z,59.92
2017-07-29T22:11:23.182Z,59.97
2017-07-29T22:13:52.729Z,60.07
2017-07-29T22:16:22.380Z,60.82
2017-07-29T22:18:51.939Z,60.83
2017-07-29T22:21:21.485Z,61.29
2017-07-29T22:23:51.046Z,61.34
2017-07-29T22:26:20.610Z,61.42
2017-07-29T22:28:50.209Z,61.09
2017-07-29T22:31:19.741Z,61.48
2017-07-29T22:33:49.277Z,61.68
2017-07-29T22:36:18.928Z,62.17
2017-07-29T22:38:48.459Z,61.73
2017-07-29T22:41:18.029Z,62.20
2017-07-29T22:43:47.600Z,62.46
2017-07-29T22:46:17.928Z,62.46
2017-07-29T22:48:48.228Z,62.77
2017-07-29T22:51:17.757Z,62.16
2017-07-29T22:53:47.364Z,62.30
2017-07-29T22:56:17.700Z,62.36
2017-07-29T22:58:47.227Z,62.43
2017-07-29T23:01:16.879Z,62.92
2017-07-29T23:03:46.421Z,63.22
2017-07-29T23:06:15.952Z,63.54
2017-07-29T23:08:45.596Z,64.01
2017-07-29T23:11:15.149Z,64.42
2017-07-29T23:13:44.698Z,64.19
2017-07-29T23:16:14.237Z,63.37
2017-07-29T23:18:44.578Z,63.84
2017-07-29T23:21:14.166Z,64.18
2017-07-29T23:23:44.598Z,64.49
2017-07-29T23:26:14.588Z,64.89
2017-07-29T23:28:44.302Z,65.04
2017-07-29T23:31:13.866Z,64.81
2017-07-29T23:33:43.452Z,64.75
2017-07-29T23:36:13.754Z,64.46
2017-07-29T23:38:43.302Z,64.50
2017-07-29T23:41:12.867Z,65.06
2017-07-29T23:43:42.460Z,64.97
2017-07-29T23:46:12.019Z,64.80
2017-07-29T23:48:41.556Z,65.30
2017-07-29T23:51:11.154Z,65.47
2017-07-29T23:53:40.857Z,64.67
2017-07-29T23:56:10.525Z,65.25
2017-07-29T23:58:40.838Z,65.47
